sensor_id;sensor_type;location;lat;lon;timestamp;pressure;altitude;pressure_sealevel;temperature;humidity
8637;BME280;4356;49.068;8.658;2024-03-23T00:55:41;99109.31;;;18.11;43.38
8637;BME280;4356;49.068;8.658;2024-03-23T00:58:07;99115.34;;;18.13;43.13
8637;BME280;4356;49.068;8.658;2024-03-23T01:00:32;99118.06;;;18.13;43.03
8637;BME280;4356;49.068;8.658;2024-03-23T01:02:58;99109.91;;;18.02;43.48
8637;BME280;4356;49.068;8.658;2024-03-23T01:05:23;99128.34;;;18.11;43.39
8637;BME280;4356;49.068;8.658;2024-03-23T01:07:49;99101.41;;;18.10;43.38
8637;BME280;4356;49.068;8.658;2024-03-23T01:10:14;99105.19;;;18.09;43.46
8637;BME280;4356;49.068;8.658;2024-03-23T01:12:40;99102.47;;;18.09;43.37
8637;BME280;4356;49.068;8.658;2024-03-23T01:15:05;99106.25;;;18.08;43.65
8637;BME280;4356;49.068;8.658;2024-03-23T01:17:31;99108.72;;;18.09;43.68
8637;BME280;4356;49.068;8.658;2024-03-23T01:19:57;99091.47;;;18.04;43.53
8637;BME280;4356;49.068;8.658;2024-03-23T01:22:22;99091.81;;;18.07;43.40
8637;BME280;4356;49.068;8.658;2024-03-23T01:24:47;99063.34;;;17.98;43.20
8637;BME280;4356;49.068;8.658;2024-03-23T01:27:13;99083.91;;;18.06;43.47
8637;BME280;4356;49.068;8.658;2024-03-23T01:29:38;99071.13;;;18.06;43.45
8637;BME280;4356;49.068;8.658;2024-03-23T01:32:04;99075.75;;;18.06;43.17
8637;BME280;4356;49.068;8.658;2024-03-23T01:34:30;99085.78;;;18.05;43.32
8637;BME280;4356;49.068;8.658;2024-03-23T01:36:55;99066.66;;;18.00;43.52
8637;BME280;4356;49.068;8.658;2024-03-23T01:39:20;99062.06;;;18.01;43.64
8637;BME280;4356;49.068;8.658;2024-03-23T01:41:46;99075.41;;;18.02;43.67
8637;BME280;4356;49.068;8.658;2024-03-23T01:44:11;99078.72;;;18.04;43.43
8637;BME280;4356;49.068;8.658;2024-03-23T01:46:37;99070.56;;;18.04;43.70
8637;BME280;4356;49.068;8.658;2024-03-23T01:49:04;99071.59;;;18.03;43.73
8637;BME280;4356;49.068;8.658;2024-03-23T01:51:30;99059.09;;;18.02;43.82
8637;BME280;4356;49.068;8.658;2024-03-23T01:53:56;99062.41;;;18.04;43.37
8637;BME280;4356;49.068;8.658;2024-03-23T01:56:22;99056.38;;;18.02;43.24
8637;BME280;4356;49.068;8.658;2024-03-23T01:58:47;99048.47;;;18.01;43.43
8637;BME280;4356;49.068;8.658;2024-03-23T02:01:12;99057.44;;;18.01;43.41
8637;BME280;4356;49.068;8.658;2024-03-23T02:03:38;99054.13;;;17.99;43.82
8637;BME280;4356;49.068;8.658;2024-03-23T02:06:03;99045.16;;;17.99;43.60
8637;BME280;4356;49.068;8.658;2024-03-23T02:08:30;99044.31;;;17.98;43.72
8637;BME280;4356;49.068;8.658;2024-03-23T02:10:56;99041.34;;;18.00;43.41
8637;BME280;4356;49.068;8.658;2024-03-23T02:13:21;99026.34;;;17.97;43.76
8637;BME280;4356;49.068;8.658;2024-03-23T02:15:47;99036.16;;;17.98;43.84
8637;BME280;4356;49.068;8.658;2024-03-23T02:18:13;99031.44;;;17.94;43.85
8637;BME280;4356;49.068;8.658;2024-03-23T02:20:39;99036.41;;;17.97;43.94
8637;BME280;4356;49.068;8.658;2024-03-23T02:23:05;99040.78;;;17.98;43.70
8637;BME280;4356;49.068;8.658;2024-03-23T02:25:34;99020.91;;;17.97;43.81
8637;BME280;4356;49.068;8.658;2024-03-23T02:28:00;99011.94;;;17.97;43.88
8637;BME280;4356;49.068;8.658;2024-03-23T02:30:26;99011.34;;;17.95;43.89
8637;BME280;4356;49.068;8.658;2024-03-23T02:32:52;99014.91;;;17.95;43.87
8637;BME280;4356;49.068;8.658;2024-03-23T02:35:17;99008.88;;;17.93;44.07
8637;BME280;4356;49.068;8.658;2024-03-23T02:37:42;99019.50;;;17.95;43.97
8637;BME280;4356;49.068;8.658;2024-03-23T02:40:08;99014.06;;;17.95;43.80
8637;BME280;4356;49.068;8.658;2024-03-23T02:42:34;99029.31;;;17.96;43.65
8637;BME280;4356;49.068;8.658;2024-03-23T02:44:59;99023.28;;;17.94;43.95
8637;BME280;4356;49.068;8.658;2024-03-23T02:47:24;99009.94;;;17.92;43.76
8637;BME280;4356;49.068;8.658;2024-03-23T02:49:50;99005.56;;;17.91;43.84
8637;BME280;4356;49.068;8.658;2024-03-23T02:52:15;99001.19;;;17.90;43.77
8637;BME280;4356;49.068;8.658;2024-03-23T02:54:40;98997.16;;;17.93;43.66
8637;BME280;4356;49.068;8.658;2024-03-23T02:57:10;98994.13;;;17.89;44.03
8637;BME280;4356;49.068;8.658;2024-03-23T02:59:35;99001.19;;;17.90;44.16
8637;BME280;4356;49.068;8.658;2024-03-23T03:02:00;98992.44;;;17.88;43.69
8637;BME280;4356;49.068;8.658;2024-03-23T03:04:26;99004.16;;;17.89;44.00
8637;BME280;4356;49.068;8.658;2024-03-23T03:06:51;99011.97;;;17.85;44.06
8637;BME280;4356;49.068;8.658;2024-03-23T03:09:17;99023.41;;;17.87;44.01
8637;BME280;4356;49.068;8.658;2024-03-23T03:11:42;99015.25;;;17.87;43.89
8637;BME280;4356;49.068;8.658;2024-03-23T03:14:07;99014.69;;;17.85;43.96
8637;BME280;4356;49.068;8.658;2024-03-23T03:16:33;99011.97;;;17.85;44.20
8637;BME280;4356;49.068;8.658;2024-03-23T03:18:59;99015.25;;;17.87;43.98
8637;BME280;4356;49.068;8.658;2024-03-23T03:21:24;98997.78;;;17.83;44.27
8637;BME280;4356;49.068;8.658;2024-03-23T03:23:49;99002.75;;;17.86;44.17
8637;BME280;4356;49.068;8.658;2024-03-23T03:26:17;98993.53;;;17.87;44.06
8637;BME280;4356;49.068;8.658;2024-03-23T03:28:43;98993.75;;;17.86;44.23
8637;BME280;4356;49.068;8.658;2024-03-23T03:31:14;99013.63;;;17.86;43.83
8637;BME280;4356;49.068;8.658;2024-03-23T03:33:39;98995.66;;;17.85;44.17
8637;BME280;4356;49.068;8.658;2024-03-23T03:36:05;99003.56;;;17.87;43.99
8637;BME280;4356;49.068;8.658;2024-03-23T03:38:30;98992.94;;;17.85;43.94
8637;BME280;4356;49.068;8.658;2024-03-23T03:40:55;98974.06;;;17.79;44.38
8637;BME280;4356;49.068;8.658;2024-03-23T03:43:21;98979.34;;;17.85;44.12
8637;BME280;4356;49.068;8.658;2024-03-23T03:45:53;98976.88;;;17.84;44.34
8637;BME280;4356;49.068;8.658;2024-03-23T03:48:19;98978.28;;;17.86;44.14
8637;BME280;4356;49.068;8.658;2024-03-23T03:50:44;98987.25;;;17.87;44.20
8637;BME280;4356;49.068;8.658;2024-03-23T03:53:09;98980.19;;;17.86;44.15
8637;BME280;4356;49.068;8.658;2024-03-23T03:55:35;98963.63;;;17.76;44.32
8637;BME280;4356;49.068;8.658;2024-03-23T03:58:00;98975.56;;;17.86;44.14
8637;BME280;4356;49.068;8.658;2024-03-23T04:00:25;98974.75;;;17.86;44.32
8637;BME280;4356;49.068;8.658;2024-03-23T04:02:51;98982.06;;;17.85;44.57
8637;BME280;4356;49.068;8.658;2024-03-23T04:05:16;98971.78;;;17.87;44.14
8637;BME280;4356;49.068;8.658;2024-03-23T04:07:42;98988.09;;;17.87;44.45
8637;BME280;4356;49.068;8.658;2024-03-23T04:10:07;98972.28;;;17.84;44.20
8637;BME280;4356;49.068;8.658;2024-03-23T04:12:34;98981.00;;;17.86;44.10
8637;BME280;4356;49.068;8.658;2024-03-23T04:14:59;98970.13;;;17.86;44.18
8637;BME280;4356;49.068;8.658;2024-03-23T04:17:25;98977.47;;;17.86;43.80
8637;BME280;4356;49.068;8.658;2024-03-23T04:19:51;98973.66;;;17.87;44.02
8637;BME280;4356;49.068;8.658;2024-03-23T04:22:17;98977.22;;;17.87;44.16
8637;BME280;4356;49.068;8.658;2024-03-23T04:24:43;98979.59;;;17.84;44.11
8637;BME280;4356;49.068;8.658;2024-03-23T04:27:08;98970.34;;;17.85;43.91
8637;BME280;4356;49.068;8.658;2024-03-23T04:29:33;98972.28;;;17.84;43.98
8637;BME280;4356;49.068;8.658;2024-03-23T04:31:59;98968.13;;;17.82;44.00
8637;BME280;4356;49.068;8.658;2024-03-23T04:34:24;98985.63;;;17.86;43.83
8637;BME280;4356;49.068;8.658;2024-03-23T04:36:50;98977.72;;;17.84;44.09
8637;BME280;4356;49.068;8.658;2024-03-23T04:39:15;98978.41;;;17.80;44.08
8637;BME280;4356;49.068;8.658;2024-03-23T04:41:40;98991.50;;;17.83;44.02
8637;BME280;4356;49.068;8.658;2024-03-23T04:44:06;98991.50;;;17.83;43.98
8637;BME280;4356;49.068;8.658;2024-03-23T04:46:31;98990.34;;;17.79;44.02
8637;BME280;4356;49.068;8.658;2024-03-23T04:48:57;99008.91;;;17.82;43.80
8637;BME280;4356;49.068;8.658;2024-03-23T04:51:25;99010.44;;;17.78;43.79
8637;BME280;4356;49.068;8.658;2024-03-23T04:53:51;99000.16;;;17.80;44.10
8637;BME280;4356;49.068;8.658;2024-03-23T04:56:17;99007.25;;;17.81;44.17
8637;BME280;4356;49.068;8.658;2024-03-23T04:58:43;99010.44;;;17.78;43.84
8637;BME280;4356;49.068;8.658;2024-03-23T05:01:09;99009.38;;;17.79;44.13
8637;BME280;4356;49.068;8.658;2024-03-23T05:03:34;99014.22;;;17.77;43.78
8637;BME280;4356;49.068;8.658;2024-03-23T05:05:59;99007.13;;;17.76;43.94
8637;BME280;4356;49.068;8.658;2024-03-23T05:08:25;99011.50;;;17.77;44.10
8637;BME280;4356;49.068;8.658;2024-03-23T05:10:51;99015.50;;;17.74;44.07
8637;BME280;4356;49.068;8.658;2024-03-23T05:13:16;99004.41;;;17.76;44.10
8637;BME280;4356;49.068;8.658;2024-03-23T05:15:41;99003.00;;;17.73;43.88
8637;BME280;4356;49.068;8.658;2024-03-23T05:18:07;99006.31;;;17.75;44.01
8637;BME280;4356;49.068;8.658;2024-03-23T05:20:32;99009.38;;;17.67;43.95
8637;BME280;4356;49.068;8.658;2024-03-23T05:22:57;99025.00;;;17.72;44.05
8637;BME280;4356;49.068;8.658;2024-03-23T05:25:23;99042.09;;;17.72;44.10
8637;BME280;4356;49.068;8.658;2024-03-23T05:27:48;99035.50;;;17.68;43.95
8637;BME280;4356;49.068;8.658;2024-03-23T05:30:14;99032.19;;;17.66;43.79
8637;BME280;4356;49.068;8.658;2024-03-23T05:32:39;99043.41;;;17.70;43.68
8637;BME280;4356;49.068;8.658;2024-03-23T05:35:06;99049.09;;;17.68;44.09
8637;BME280;4356;49.068;8.658;2024-03-23T05:37:32;99044.47;;;17.69;43.80
8637;BME280;4356;49.068;8.658;2024-03-23T05:39:59;99052.03;;;17.67;43.87
8637;BME280;4356;49.068;8.658;2024-03-23T05:42:24;99056.41;;;17.68;43.81
8637;BME280;4356;49.068;8.658;2024-03-23T05:44:50;99060.75;;;17.69;43.91
8637;BME280;4356;49.068;8.658;2024-03-23T05:47:15;99056.41;;;17.56;43.75
8637;BME280;4356;49.068;8.658;2024-03-23T05:49:42;99072.00;;;17.61;43.82
8637;BME280;4356;49.068;8.658;2024-03-23T05:52:08;99091.38;;;17.64;44.04
8637;BME280;4356;49.068;8.658;2024-03-23T05:54:34;99092.19;;;17.65;43.81
8637;BME280;4356;49.068;8.658;2024-03-23T05:56:59;99101.41;;;17.64;43.79
8637;BME280;4356;49.068;8.658;2024-03-23T05:59:25;99099.25;;;17.54;43.91
8637;BME280;4356;49.068;8.658;2024-03-23T06:01:52;99115.22;;;17.62;43.97
8637;BME280;4356;49.068;8.658;2024-03-23T06:04:17;99124.44;;;17.61;43.78
8637;BME280;4356;49.068;8.658;2024-03-23T06:06:43;99136.72;;;17.64;43.93
8637;BME280;4356;49.068;8.658;2024-03-23T06:09:08;99151.16;;;17.64;43.99
8637;BME280;4356;49.068;8.658;2024-03-23T06:11:33;99122.66;;;17.55;43.64
8637;BME280;4356;49.068;8.658;2024-03-23T06:13:59;99152.44;;;17.62;44.12
8637;BME280;4356;49.068;8.658;2024-03-23T06:16:24;99155.97;;;17.62;43.76
8637;BME280;4356;49.068;8.658;2024-03-23T06:18:53;99154.78;;;17.58;43.83
8637;BME280;4356;49.068;8.658;2024-03-23T06:21:19;99171.94;;;17.59;43.69
8637;BME280;4356;49.068;8.658;2024-03-23T06:23:45;99176.28;;;17.60;43.86
8637;BME280;4356;49.068;8.658;2024-03-23T06:26:20;99177.59;;;17.57;44.13
8637;BME280;4356;49.068;8.658;2024-03-23T06:28:46;99189.06;;;17.59;44.11
8637;BME280;4356;49.068;8.658;2024-03-23T06:31:12;99190.09;;;17.58;43.71
8637;BME280;4356;49.068;8.658;2024-03-23T06:33:38;99174.72;;;17.52;43.93
8637;BME280;4356;49.068;8.658;2024-03-23T06:36:05;99213.13;;;17.56;44.01
8637;BME280;4356;49.068;8.658;2024-03-23T06:38:30;99208.53;;;17.56;43.87
8637;BME280;4356;49.068;8.658;2024-03-23T06:40:56;99207.69;;;17.56;43.94
8637;BME280;4356;49.068;8.658;2024-03-23T06:43:21;99208.53;;;17.56;44.02
8637;BME280;4356;49.068;8.658;2024-03-23T06:45:53;99209.25;;;17.52;44.09
8637;BME280;4356;49.068;8.658;2024-03-23T06:48:19;99215.94;;;17.49;44.07
8637;BME280;4356;49.068;8.658;2024-03-23T06:50:45;99232.63;;;17.53;44.10
8637;BME280;4356;49.068;8.658;2024-03-23T06:53:14;99239.94;;;17.52;44.03
8637;BME280;4356;49.068;8.658;2024-03-23T06:55:40;99233.72;;;17.45;43.95
8637;BME280;4356;49.068;8.658;2024-03-23T06:58:06;99248.53;;;17.49;43.98
8637;BME280;4356;49.068;8.658;2024-03-23T07:00:32;99255.66;;;17.50;43.83
8637;BME280;4356;49.068;8.658;2024-03-23T07:02:58;99256.47;;;17.51;43.62
8637;BME280;4356;49.068;8.658;2024-03-23T07:05:23;99259.19;;;17.51;43.85
8637;BME280;4356;49.068;8.658;2024-03-23T07:07:48;99264.25;;;17.47;43.72
8637;BME280;4356;49.068;8.658;2024-03-23T07:10:14;99267.16;;;17.45;43.52
8637;BME280;4356;49.068;8.658;2024-03-23T07:12:39;99279.28;;;17.50;43.71
8637;BME280;4356;49.068;8.658;2024-03-23T07:15:05;99283.25;;;17.47;43.74
8637;BME280;4356;49.068;8.658;2024-03-23T07:17:30;99289.28;;;17.49;44.02
8637;BME280;4356;49.068;8.658;2024-03-23T07:19:57;99303.47;;;17.51;43.70
8637;BME280;4356;49.068;8.658;2024-03-23T07:22:23;99298.53;;;17.48;43.91
8637;BME280;4356;49.068;8.658;2024-03-23T07:24:49;99308.91;;;17.51;43.83
8637;BME280;4356;49.068;8.658;2024-03-23T07:27:14;99300.59;;;17.46;43.45
8637;BME280;4356;49.068;8.658;2024-03-23T07:29:40;99322.50;;;17.51;43.63
8637;BME280;4356;49.068;8.658;2024-03-23T07:32:05;99331.13;;;17.48;44.15
8637;BME280;4356;49.068;8.658;2024-03-23T07:34:31;99332.75;;;17.49;43.67
8637;BME280;4356;49.068;8.658;2024-03-23T07:36:56;99338.19;;;17.49;43.81
8637;BME280;4356;49.068;8.658;2024-03-23T07:39:21;99346.56;;;17.48;43.76
8637;BME280;4356;49.068;8.658;2024-03-23T07:41:47;99353.00;;;17.46;44.27
8637;BME280;4356;49.068;8.658;2024-03-23T07:44:12;99376.22;;;17.49;43.69
8637;BME280;4356;49.068;8.658;2024-03-23T07:46:38;99371.66;;;17.43;44.03
8637;BME280;4356;49.068;8.658;2024-03-23T07:49:06;99374.97;;;17.45;43.85
8637;BME280;4356;49.068;8.658;2024-03-23T07:51:32;99377.47;;;17.46;43.59
8637;BME280;4356;49.068;8.658;2024-03-23T07:53:58;99400.91;;;17.48;43.78
8637;BME280;4356;49.068;8.658;2024-03-23T07:56:24;99386.91;;;17.44;43.52
8637;BME280;4356;49.068;8.658;2024-03-23T07:58:49;99389.03;;;17.42;43.86
8637;BME280;4356;49.068;8.658;2024-03-23T08:01:16;99419.69;;;17.49;43.57
8637;BME280;4356;49.068;8.658;2024-03-23T08:03:43;99418.66;;;17.50;43.91
8637;BME280;4356;49.068;8.658;2024-03-23T08:06:10;99406.81;;;17.38;43.99
8637;BME280;4356;49.068;8.658;2024-03-23T08:08:36;99435.38;;;17.47;43.67
8637;BME280;4356;49.068;8.658;2024-03-23T08:11:01;99439.78;;;17.48;43.71
8637;BME280;4356;49.068;8.658;2024-03-23T08:13:28;99446.38;;;17.52;43.75
8637;BME280;4356;49.068;8.658;2024-03-23T08:15:57;99451.25;;;17.50;43.68
8637;BME280;4356;49.068;8.658;2024-03-23T08:18:23;99455.63;;;17.51;43.58
8637;BME280;4356;49.068;8.658;2024-03-23T08:21:15;99454.34;;;17.54;43.34
8637;BME280;4356;49.068;8.658;2024-03-23T08:23:40;99453.50;;;17.53;43.83
8637;BME280;4356;49.068;8.658;2024-03-23T08:26:10;99451.38;;;17.55;43.56
8637;BME280;4356;49.068;8.658;2024-03-23T08:28:36;99464.38;;;17.53;43.69
8637;BME280;4356;49.068;8.658;2024-03-23T08:31:12;99469.34;;;17.56;43.19
8637;BME280;4356;49.068;8.658;2024-03-23T08:33:38;99469.34;;;17.56;43.50
8637;BME280;4356;49.068;8.658;2024-03-23T08:36:08;99463.91;;;17.56;43.56
8637;BME280;4356;49.068;8.658;2024-03-23T08:38:34;99475.63;;;17.57;43.51
8637;BME280;4356;49.068;8.658;2024-03-23T08:41:07;99485.41;;;17.58;43.65
8637;BME280;4356;49.068;8.658;2024-03-23T08:43:36;99479.16;;;17.57;43.57
8637;BME280;4356;49.068;8.658;2024-03-23T08:46:06;99473.72;;;17.57;43.18
8637;BME280;4356;49.068;8.658;2024-03-23T08:48:34;99474.53;;;17.58;43.17
8637;BME280;4356;49.068;8.658;2024-03-23T08:51:07;99486.84;;;17.60;43.54
8637;BME280;4356;49.068;8.658;2024-03-23T08:53:34;99488.72;;;17.60;43.31
8637;BME280;4356;49.068;8.658;2024-03-23T08:56:00;99497.25;;;17.63;43.30
8637;BME280;4356;49.068;8.658;2024-03-23T08:58:27;99497.25;;;17.63;43.16
8637;BME280;4356;49.068;8.658;2024-03-23T09:00:53;99501.88;;;17.63;43.20
8637;BME280;4356;49.068;8.658;2024-03-23T09:03:24;99502.69;;;17.63;43.32
8637;BME280;4356;49.068;8.658;2024-03-23T09:05:50;99495.16;;;17.65;42.78
8637;BME280;4356;49.068;8.658;2024-03-23T09:08:16;99496.00;;;17.66;42.78
8637;BME280;4356;49.068;8.658;2024-03-23T09:10:42;99489.13;;;17.63;42.96
8637;BME280;4356;49.068;8.658;2024-03-23T09:13:08;99491.78;;;17.70;43.24
8637;BME280;4356;49.068;8.658;2024-03-23T09:15:37;99496.97;;;17.71;43.02
8637;BME280;4356;49.068;8.658;2024-03-23T09:18:03;99501.34;;;17.72;42.72
8637;BME280;4356;49.068;8.658;2024-03-23T09:20:32;99503.16;;;17.78;43.07
8637;BME280;4356;49.068;8.658;2024-03-23T09:22:58;99500.81;;;17.82;42.73
8637;BME280;4356;49.068;8.658;2024-03-23T09:25:23;99508.06;;;17.88;42.41
8637;BME280;4356;49.068;8.658;2024-03-23T09:27:50;99509.50;;;17.90;42.33
8637;BME280;4356;49.068;8.658;2024-03-23T09:30:15;99494.13;;;17.84;42.44
8637;BME280;4356;49.068;8.658;2024-03-23T09:32:44;99514.50;;;17.93;41.97
8637;BME280;4356;49.068;8.658;2024-03-23T09:35:10;99519.00;;;17.99;41.57
8637;BME280;4356;49.068;8.658;2024-03-23T09:37:35;99511.78;;;17.93;42.10
8637;BME280;4356;49.068;8.658;2024-03-23T09:40:01;99517.50;;;18.03;42.16
8637;BME280;4356;49.068;8.658;2024-03-23T09:42:27;99497.13;;;17.94;41.73
8637;BME280;4356;49.068;8.658;2024-03-23T09:44:53;99495.00;;;17.96;42.18
8637;BME280;4356;49.068;8.658;2024-03-23T09:47:19;99516.47;;;18.04;42.27
8637;BME280;4356;49.068;8.658;2024-03-23T09:49:44;99495.22;;;17.95;41.80
8637;BME280;4356;49.068;8.658;2024-03-23T09:52:10;99524.38;;;18.06;41.64
8637;BME280;4356;49.068;8.658;2024-03-23T09:54:36;99513.50;;;18.06;41.23
8637;BME280;4356;49.068;8.658;2024-03-23T09:57:01;99526.88;;;18.07;41.32
8637;BME280;4356;49.068;8.658;2024-03-23T09:59:27;99512.38;;;17.95;41.85
8637;BME280;4356;49.068;8.658;2024-03-23T10:01:54;99523.53;;;18.05;41.86
8637;BME280;4356;49.068;8.658;2024-03-23T10:04:39;99529.81;;;18.06;42.08
8637;BME280;4356;49.068;8.658;2024-03-23T10:07:15;99526.97;;;18.01;41.85
8637;BME280;4356;49.068;8.658;2024-03-23T10:09:44;99525.50;;;17.98;41.88
8637;BME280;4356;49.068;8.658;2024-03-23T10:12:11;99552.59;;;18.05;41.38
8637;BME280;4356;49.068;8.658;2024-03-23T10:14:38;99554.16;;;18.01;42.01
8637;BME280;4356;49.068;8.658;2024-03-23T10:17:21;99551.63;;;17.99;42.14
8637;BME280;4356;49.068;8.658;2024-03-23T10:19:53;99545.59;;;17.97;41.89
8637;BME280;4356;49.068;8.658;2024-03-23T10:22:21;99551.63;;;17.99;42.19
8637;BME280;4356;49.068;8.658;2024-03-23T10:24:47;99554.97;;;18.01;42.11
8637;BME280;4356;49.068;8.658;2024-03-23T10:27:17;99533.06;;;17.96;42.32
8637;BME280;4356;49.068;8.658;2024-03-23T10:29:44;99536.38;;;17.98;42.21
8637;BME280;4356;49.068;8.658;2024-03-23T10:32:10;99526.56;;;17.97;42.09
8637;BME280;4356;49.068;8.658;2024-03-23T10:34:37;99527.16;;;17.99;42.47
8637;BME280;4356;49.068;8.658;2024-03-23T10:37:03;99527.41;;;17.98;42.57
8637;BME280;4356;49.068;8.658;2024-03-23T10:39:39;99533.19;;;18.01;42.25
8637;BME280;4356;49.068;8.658;2024-03-23T10:42:06;99544.06;;;18.01;42.33
8637;BME280;4356;49.068;8.658;2024-03-23T10:44:32;99544.31;;;18.00;42.25
8637;BME280;4356;49.068;8.658;2024-03-23T10:46:59;99544.31;;;18.00;42.50
8637;BME280;4356;49.068;8.658;2024-03-23T10:49:32;99531.56;;;18.00;42.34
8637;BME280;4356;49.068;8.658;2024-03-23T10:52:07;99541.81;;;17.98;42.18
8637;BME280;4356;49.068;8.658;2024-03-23T10:54:33;99553.31;;;18.00;42.44
8637;BME280;4356;49.068;8.658;2024-03-23T10:57:04;99550.44;;;17.95;42.68
8637;BME280;4356;49.068;8.658;2024-03-23T10:59:31;99553.75;;;17.97;42.29
8637;BME280;4356;49.068;8.658;2024-03-23T11:01:59;99553.31;;;18.00;42.55
8637;BME280;4356;49.068;8.658;2024-03-23T11:04:32;99555.78;;;18.02;42.41
8637;BME280;4356;49.068;8.658;2024-03-23T11:06:58;99550.34;;;18.02;42.42
8637;BME280;4356;49.068;8.658;2024-03-23T11:09:43;99546.75;;;18.08;42.37
8637;BME280;4356;49.068;8.658;2024-03-23T11:12:25;99542.72;;;18.10;42.09
8637;BME280;4356;49.068;8.658;2024-03-23T11:14:53;99538.25;;;18.16;41.68
8637;BME280;4356;49.068;8.658;2024-03-23T11:17:24;99540.31;;;18.20;41.97
8637;BME280;4356;49.068;8.658;2024-03-23T11:20:03;99538.19;;;18.22;41.72
8637;BME280;4356;49.068;8.658;2024-03-23T11:22:45;99531.56;;;18.30;41.83
8637;BME280;4356;49.068;8.658;2024-03-23T11:25:23;99533.38;;;18.36;41.69
8637;BME280;4356;49.068;8.658;2024-03-23T11:27:51;99519.56;;;18.37;41.42
8637;BME280;4356;49.068;8.658;2024-03-23T11:32:44;99521.63;;;18.42;41.40
8637;BME280;4356;49.068;8.658;2024-03-23T11:35:09;99517.16;;;18.48;40.99
8637;BME280;4356;49.068;8.658;2024-03-23T11:37:36;99520.25;;;18.51;40.91
8637;BME280;4356;49.068;8.658;2024-03-23T11:40:22;99517.06;;;18.54;40.84
8637;BME280;4356;49.068;8.658;2024-03-23T11:42:55;99520.38;;;18.56;40.79
8637;BME280;4356;49.068;8.658;2024-03-23T11:45:20;99505.25;;;18.60;40.58
8637;BME280;4356;49.068;8.658;2024-03-23T11:47:46;99507.13;;;18.60;40.53
8637;BME280;4356;49.068;8.658;2024-03-23T11:50:19;99502.53;;;18.60;40.49
8637;BME280;4356;49.068;8.658;2024-03-23T11:52:44;99503.56;;;18.59;40.72
8637;BME280;4356;49.068;8.658;2024-03-23T11:55:10;99509.38;;;18.63;40.70
8637;BME280;4356;49.068;8.658;2024-03-23T11:57:35;99501.94;;;18.58;40.61
8637;BME280;4356;49.068;8.658;2024-03-23T12:00:01;99501.81;;;18.65;40.22
8637;BME280;4356;49.068;8.658;2024-03-23T12:02:26;99502.19;;;18.68;40.72
8637;BME280;4356;49.068;8.658;2024-03-23T12:04:51;99516.16;;;18.72;40.94
8637;BME280;4356;49.068;8.658;2024-03-23T12:07:19;99508.81;;;18.72;41.05
8637;BME280;4356;49.068;8.658;2024-03-23T12:09:46;99515.94;;;18.73;40.44
8637;BME280;4356;49.068;8.658;2024-03-23T12:12:16;99499.81;;;18.72;40.29
8637;BME280;4356;49.068;8.658;2024-03-23T12:15:00;99494.97;;;18.74;40.24
8637;BME280;4356;49.068;8.658;2024-03-23T12:17:26;99482.22;;;18.74;40.01
8637;BME280;4356;49.068;8.658;2024-03-23T12:19:51;99469.44;;;18.75;40.05
8637;BME280;4356;49.068;8.658;2024-03-23T12:22:20;99479.38;;;18.81;40.37
8637;BME280;4356;49.068;8.658;2024-03-23T12:24:46;99463.03;;;18.81;40.51
8637;BME280;4356;49.068;8.658;2024-03-23T12:27:11;99459.63;;;18.85;40.46
8637;BME280;4356;49.068;8.658;2024-03-23T12:29:36;99454.19;;;18.85;40.02
8637;BME280;4356;49.068;8.658;2024-03-23T12:32:04;99453.94;;;18.87;39.61
8637;BME280;4356;49.068;8.658;2024-03-23T12:34:30;99448.38;;;18.93;39.89
8637;BME280;4356;49.068;8.658;2024-03-23T12:36:56;99452.53;;;18.96;40.03
8637;BME280;4356;49.068;8.658;2024-03-23T12:39:21;99449.56;;;18.97;39.93
8637;BME280;4356;49.068;8.658;2024-03-23T12:41:48;99441.16;;;18.99;40.02
8637;BME280;4356;49.068;8.658;2024-03-23T12:44:13;99453.59;;;19.06;39.78
8637;BME280;4356;49.068;8.658;2024-03-23T12:46:40;99439.97;;;19.06;39.61
8637;BME280;4356;49.068;8.658;2024-03-23T12:49:06;99449.59;;;19.09;38.94
8637;BME280;4356;49.068;8.658;2024-03-23T12:51:32;99423.41;;;19.08;38.81
8637;BME280;4356;49.068;8.658;2024-03-23T12:53:58;99445.31;;;19.13;39.15
8637;BME280;4356;49.068;8.658;2024-03-23T12:56:23;99419.13;;;19.12;39.41
8637;BME280;4356;49.068;8.658;2024-03-23T12:58:48;99428.16;;;19.12;39.43
8637;BME280;4356;49.068;8.658;2024-03-23T13:01:17;99433.47;;;19.19;39.12
8637;BME280;4356;49.068;8.658;2024-03-23T13:03:42;99436.78;;;19.21;39.46
8637;BME280;4356;49.068;8.658;2024-03-23T13:06:10;99444.72;;;19.22;38.38
8637;BME280;4356;49.068;8.658;2024-03-23T13:08:35;99464.63;;;19.23;38.86
8637;BME280;4356;49.068;8.658;2024-03-23T13:11:00;99488.53;;;19.21;38.96
8637;BME280;4356;49.068;8.658;2024-03-23T13:13:26;99530.00;;;19.23;38.63
8637;BME280;4356;49.068;8.658;2024-03-23T13:15:51;99534.00;;;19.20;38.60
8637;BME280;4356;49.068;8.658;2024-03-23T13:18:16;99547.06;;;19.18;38.96
8637;BME280;4356;49.068;8.658;2024-03-23T13:20:42;99535.22;;;19.13;39.21
8637;BME280;4356;49.068;8.658;2024-03-23T13:23:07;99539.81;;;19.12;39.43
8637;BME280;4356;49.068;8.658;2024-03-23T13:25:34;99516.59;;;19.10;39.27
8637;BME280;4356;49.068;8.658;2024-03-23T13:27:59;99515.53;;;19.11;39.45
8637;BME280;4356;49.068;8.658;2024-03-23T13:30:24;99510.34;;;19.09;39.64
8637;BME280;4356;49.068;8.658;2024-03-23T13:32:50;99506.78;;;19.09;39.32
8637;BME280;4356;49.068;8.658;2024-03-23T13:35:15;99504.41;;;19.12;39.10
8637;BME280;4356;49.068;8.658;2024-03-23T13:37:41;99507.97;;;19.13;38.94
8637;BME280;4356;49.068;8.658;2024-03-23T13:40:07;99489.50;;;19.15;38.99
8637;BME280;4356;49.068;8.658;2024-03-23T13:42:33;99496.94;;;19.19;39.33
8637;BME280;4356;49.068;8.658;2024-03-23T13:44:58;99501.31;;;19.20;38.60
8637;BME280;4356;49.068;8.658;2024-03-23T13:47:23;99488.41;;;19.16;38.63
8637;BME280;4356;49.068;8.658;2024-03-23T13:49:49;99525.38;;;19.23;39.24
8637;BME280;4356;49.068;8.658;2024-03-23T13:52:14;99517.22;;;19.23;38.65
8637;BME280;4356;49.068;8.658;2024-03-23T13:54:39;99518.25;;;19.22;38.85
8637;BME280;4356;49.068;8.658;2024-03-23T13:57:10;99502.16;;;19.21;39.07
8637;BME280;4356;49.068;8.658;2024-03-23T13:59:36;99500.50;;;19.20;39.23
8637;BME280;4356;49.068;8.658;2024-03-23T14:02:01;99502.75;;;19.23;39.14
8637;BME280;4356;49.068;8.658;2024-03-23T14:04:26;99497.53;;;19.21;38.75
8637;BME280;4356;49.068;8.658;2024-03-23T14:06:52;99488.28;;;19.22;38.86
8637;BME280;4356;49.068;8.658;2024-03-23T14:09:17;99485.56;;;19.22;39.03
8637;BME280;4356;49.068;8.658;2024-03-23T14:11:48;99500.16;;;19.28;39.05
8637;BME280;4356;49.068;8.658;2024-03-23T14:14:14;99492.69;;;19.23;39.19
8637;BME280;4356;49.068;8.658;2024-03-23T14:16:43;99504.31;;;19.30;39.07